sensor_id;sensor_type;location;lat;lon;timestamp;P1;durP1;ratioP1;P2;durP2;ratioP2
77026;SDS011;65956;52.986;17.490;2023-07-16T00:00:02;6.80;;;4.40;;
77026;SDS011;65956;52.986;17.490;2023-07-16T00:04:58;8.70;;;4.30;;
77026;SDS011;65956;52.986;17.490;2023-07-16T00:07:24;8.30;;;4.20;;
77026;SDS011;65956;52.986;17.490;2023-07-16T00:09:50;5.50;;;3.90;;
77026;SDS011;65956;52.986;17.490;2023-07-16T00:12:16;7.80;;;4.20;;
77026;SDS011;65956;52.986;17.490;2023-07-16T00:14:42;6.60;;;4.90;;
77026;SDS011;65956;52.986;17.490;2023-07-16T00:17:07;7.50;;;4.30;;
77026;SDS011;65956;52.986;17.490;2023-07-16T00:19:33;7.70;;;4.90;;
77026;SDS011;65956;52.986;17.490;2023-07-16T00:22:00;7.30;;;4.60;;
77026;SDS011;65956;52.986;17.490;2023-07-16T00:24:26;7.30;;;4.20;;
77026;SDS011;65956;52.986;17.490;2023-07-16T00:26:52;5.80;;;4.30;;
77026;SDS011;65956;52.986;17.490;2023-07-16T00:29:18;7.30;;;4.30;;
77026;SDS011;65956;52.986;17.490;2023-07-16T00:31:44;8.80;;;4.10;;
77026;SDS011;65956;52.986;17.490;2023-07-16T00:34:10;7.90;;;4.30;;
77026;SDS011;65956;52.986;17.490;2023-07-16T00:36:38;7.00;;;4.70;;
77026;SDS011;65956;52.986;17.490;2023-07-16T00:39:04;7.20;;;4.40;;
77026;SDS011;65956;52.986;17.490;2023-07-16T00:41:31;6.70;;;4.90;;
77026;SDS011;65956;52.986;17.490;2023-07-16T00:43:57;6.20;;;4.50;;
77026;SDS011;65956;52.986;17.490;2023-07-16T00:46:23;7.70;;;4.80;;
77026;SDS011;65956;52.986;17.490;2023-07-16T00:48:50;7.50;;;4.60;;
77026;SDS011;65956;52.986;17.490;2023-07-16T00:51:17;7.70;;;4.70;;
77026;SDS011;65956;52.986;17.490;2023-07-16T00:53:44;7.30;;;4.60;;
77026;SDS011;65956;52.986;17.490;2023-07-16T00:56:11;7.40;;;4.70;;
77026;SDS011;65956;52.986;17.490;2023-07-16T00:58:44;6.40;;;4.30;;
77026;SDS011;65956;52.986;17.490;2023-07-16T01:01:10;7.70;;;4.50;;
77026;SDS011;65956;52.986;17.490;2023-07-16T01:03:36;8.00;;;4.30;;
77026;SDS011;65956;52.986;17.490;2023-07-16T01:06:10;7.70;;;5.00;;
77026;SDS011;65956;52.986;17.490;2023-07-16T01:11:09;7.60;;;4.90;;
77026;SDS011;65956;52.986;17.490;2023-07-16T01:13:36;6.30;;;4.70;;
77026;SDS011;65956;52.986;17.490;2023-07-16T01:16:02;8.80;;;4.80;;
77026;SDS011;65956;52.986;17.490;2023-07-16T01:18:28;7.70;;;4.70;;
77026;SDS011;65956;52.986;17.490;2023-07-16T01:20:55;6.90;;;4.60;;
77026;SDS011;65956;52.986;17.490;2023-07-16T01:23:35;9.90;;;5.00;;
77026;SDS011;65956;52.986;17.490;2023-07-16T01:31:52;8.00;;;4.80;;
77026;SDS011;65956;52.986;17.490;2023-07-16T01:34:21;6.70;;;4.50;;
77026;SDS011;65956;52.986;17.490;2023-07-16T01:36:48;7.40;;;4.90;;
77026;SDS011;65956;52.986;17.490;2023-07-16T01:39:15;7.40;;;5.20;;
77026;SDS011;65956;52.986;17.490;2023-07-16T01:41:42;6.70;;;4.80;;
77026;SDS011;65956;52.986;17.490;2023-07-16T01:44:08;7.20;;;5.20;;
77026;SDS011;65956;52.986;17.490;2023-07-16T01:46:34;7.60;;;5.10;;
77026;SDS011;65956;52.986;17.490;2023-07-16T01:49:00;7.60;;;4.60;;
77026;SDS011;65956;52.986;17.490;2023-07-16T01:51:26;7.90;;;4.70;;
77026;SDS011;65956;52.986;17.490;2023-07-16T01:53:52;6.20;;;4.20;;
77026;SDS011;65956;52.986;17.490;2023-07-16T01:56:18;7.20;;;4.60;;
77026;SDS011;65956;52.986;17.490;2023-07-16T01:58:47;7.20;;;4.60;;
77026;SDS011;65956;52.986;17.490;2023-07-16T02:01:13;6.10;;;4.40;;
77026;SDS011;65956;52.986;17.490;2023-07-16T02:03:39;6.70;;;4.60;;
77026;SDS011;65956;52.986;17.490;2023-07-16T02:06:05;7.20;;;4.90;;
77026;SDS011;65956;52.986;17.490;2023-07-16T02:08:33;7.40;;;4.90;;
77026;SDS011;65956;52.986;17.490;2023-07-16T02:10:59;7.80;;;4.50;;
77026;SDS011;65956;52.986;17.490;2023-07-16T02:13:25;8.20;;;4.70;;
77026;SDS011;65956;52.986;17.490;2023-07-16T02:15:51;6.70;;;4.70;;
77026;SDS011;65956;52.986;17.490;2023-07-16T02:18:17;7.30;;;4.80;;
77026;SDS011;65956;52.986;17.490;2023-07-16T02:20:43;8.00;;;4.90;;
77026;SDS011;65956;52.986;17.490;2023-07-16T02:23:10;6.40;;;4.40;;
77026;SDS011;65956;52.986;17.490;2023-07-16T02:25:36;7.10;;;4.90;;
77026;SDS011;65956;52.986;17.490;2023-07-16T02:28:02;7.10;;;4.80;;
77026;SDS011;65956;52.986;17.490;2023-07-16T02:30:30;7.90;;;5.40;;
77026;SDS011;65956;52.986;17.490;2023-07-16T02:32:56;7.00;;;4.90;;
77026;SDS011;65956;52.986;17.490;2023-07-16T02:35:22;8.80;;;5.10;;
77026;SDS011;65956;52.986;17.490;2023-07-16T02:37:48;7.70;;;5.00;;
77026;SDS011;65956;52.986;17.490;2023-07-16T02:40:14;8.40;;;5.80;;
77026;SDS011;65956;52.986;17.490;2023-07-16T02:42:42;6.40;;;4.50;;
77026;SDS011;65956;52.986;17.490;2023-07-16T02:45:08;9.20;;;5.50;;
77026;SDS011;65956;52.986;17.490;2023-07-16T02:47:35;7.50;;;5.40;;
77026;SDS011;65956;52.986;17.490;2023-07-16T02:50:01;9.40;;;4.70;;
77026;SDS011;65956;52.986;17.490;2023-07-16T02:52:29;6.90;;;5.20;;
77026;SDS011;65956;52.986;17.490;2023-07-16T02:54:55;9.80;;;5.10;;
77026;SDS011;65956;52.986;17.490;2023-07-16T02:57:21;7.10;;;5.10;;
77026;SDS011;65956;52.986;17.490;2023-07-16T02:59:48;8.10;;;5.30;;
77026;SDS011;65956;52.986;17.490;2023-07-16T03:02:14;8.10;;;5.50;;
77026;SDS011;65956;52.986;17.490;2023-07-16T03:04:40;7.10;;;5.00;;
77026;SDS011;65956;52.986;17.490;2023-07-16T03:07:07;9.40;;;5.50;;
77026;SDS011;65956;52.986;17.490;2023-07-16T03:09:33;6.50;;;5.10;;
77026;SDS011;65956;52.986;17.490;2023-07-16T03:11:59;7.40;;;5.30;;
77026;SDS011;65956;52.986;17.490;2023-07-16T03:14:25;6.50;;;4.70;;
77026;SDS011;65956;52.986;17.490;2023-07-16T03:16:51;7.80;;;5.70;;
77026;SDS011;65956;52.986;17.490;2023-07-16T03:19:17;7.40;;;5.70;;
77026;SDS011;65956;52.986;17.490;2023-07-16T03:21:43;8.90;;;5.60;;
77026;SDS011;65956;52.986;17.490;2023-07-16T03:24:09;7.30;;;5.30;;
77026;SDS011;65956;52.986;17.490;2023-07-16T03:26:35;7.90;;;5.60;;
77026;SDS011;65956;52.986;17.490;2023-07-16T03:29:01;6.80;;;4.60;;
77026;SDS011;65956;52.986;17.490;2023-07-16T03:31:27;6.50;;;4.60;;
77026;SDS011;65956;52.986;17.490;2023-07-16T03:33:53;7.20;;;5.30;;
77026;SDS011;65956;52.986;17.490;2023-07-16T03:36:20;6.60;;;5.50;;
77026;SDS011;65956;52.986;17.490;2023-07-16T03:38:49;7.30;;;5.30;;
77026;SDS011;65956;52.986;17.490;2023-07-16T03:41:15;7.70;;;5.20;;
77026;SDS011;65956;52.986;17.490;2023-07-16T03:43:41;6.90;;;4.90;;
77026;SDS011;65956;52.986;17.490;2023-07-16T03:46:18;6.60;;;5.10;;
77026;SDS011;65956;52.986;17.490;2023-07-16T03:48:44;10.50;;;5.60;;
77026;SDS011;65956;52.986;17.490;2023-07-16T03:51:11;7.40;;;5.40;;
77026;SDS011;65956;52.986;17.490;2023-07-16T03:53:37;7.50;;;5.60;;
77026;SDS011;65956;52.986;17.490;2023-07-16T03:56:03;7.80;;;5.00;;
77026;SDS011;65956;52.986;17.490;2023-07-16T03:58:30;8.40;;;5.50;;
77026;SDS011;65956;52.986;17.490;2023-07-16T04:00:56;8.20;;;5.40;;
77026;SDS011;65956;52.986;17.490;2023-07-16T04:03:22;8.00;;;5.70;;
77026;SDS011;65956;52.986;17.490;2023-07-16T04:05:48;8.00;;;5.70;;
77026;SDS011;65956;52.986;17.490;2023-07-16T04:08:14;7.30;;;5.40;;
77026;SDS011;65956;52.986;17.490;2023-07-16T04:10:40;6.80;;;5.50;;
77026;SDS011;65956;52.986;17.490;2023-07-16T04:13:06;7.70;;;5.60;;
77026;SDS011;65956;52.986;17.490;2023-07-16T04:15:32;7.50;;;5.90;;
77026;SDS011;65956;52.986;17.490;2023-07-16T04:17:58;7.90;;;5.70;;
77026;SDS011;65956;52.986;17.490;2023-07-16T04:20:24;6.70;;;5.70;;
77026;SDS011;65956;52.986;17.490;2023-07-16T04:22:50;7.80;;;5.50;;
77026;SDS011;65956;52.986;17.490;2023-07-16T04:25:16;7.40;;;5.40;;
77026;SDS011;65956;52.986;17.490;2023-07-16T04:27:42;8.50;;;6.30;;
77026;SDS011;65956;52.986;17.490;2023-07-16T04:30:09;7.40;;;5.60;;
77026;SDS011;65956;52.986;17.490;2023-07-16T04:32:35;8.60;;;5.90;;
77026;SDS011;65956;52.986;17.490;2023-07-16T04:35:01;7.40;;;5.40;;
77026;SDS011;65956;52.986;17.490;2023-07-16T04:37:28;8.30;;;5.20;;
77026;SDS011;65956;52.986;17.490;2023-07-16T04:39:54;8.80;;;5.30;;
77026;SDS011;65956;52.986;17.490;2023-07-16T04:42:20;7.90;;;5.40;;
77026;SDS011;65956;52.986;17.490;2023-07-16T04:44:46;8.30;;;5.90;;
77026;SDS011;65956;52.986;17.490;2023-07-16T04:47:12;8.10;;;5.30;;
77026;SDS011;65956;52.986;17.490;2023-07-16T04:49:38;7.70;;;5.20;;
77026;SDS011;65956;52.986;17.490;2023-07-16T04:52:04;7.30;;;5.40;;
77026;SDS011;65956;52.986;17.490;2023-07-16T04:54:37;6.90;;;5.30;;
77026;SDS011;65956;52.986;17.490;2023-07-16T04:57:05;7.20;;;5.20;;
77026;SDS011;65956;52.986;17.490;2023-07-16T04:59:32;7.80;;;4.70;;
77026;SDS011;65956;52.986;17.490;2023-07-16T05:01:58;7.50;;;4.90;;
77026;SDS011;65956;52.986;17.490;2023-07-16T05:04:24;8.00;;;4.80;;
77026;SDS011;65956;52.986;17.490;2023-07-16T05:06:51;9.10;;;5.20;;
77026;SDS011;65956;52.986;17.490;2023-07-16T05:09:17;8.50;;;5.60;;
77026;SDS011;65956;52.986;17.490;2023-07-16T05:11:43;6.30;;;4.90;;
77026;SDS011;65956;52.986;17.490;2023-07-16T05:14:09;6.20;;;4.70;;
77026;SDS011;65956;52.986;17.490;2023-07-16T05:16:35;9.20;;;4.70;;
77026;SDS011;65956;52.986;17.490;2023-07-16T05:19:01;6.90;;;4.50;;
77026;SDS011;65956;52.986;17.490;2023-07-16T05:21:27;6.10;;;4.40;;
77026;SDS011;65956;52.986;17.490;2023-07-16T05:23:53;6.30;;;4.20;;
77026;SDS011;65956;52.986;17.490;2023-07-16T05:26:19;7.10;;;3.90;;
77026;SDS011;65956;52.986;17.490;2023-07-16T05:28:45;6.30;;;4.20;;
77026;SDS011;65956;52.986;17.490;2023-07-16T05:31:10;6.90;;;3.80;;
77026;SDS011;65956;52.986;17.490;2023-07-16T05:33:37;7.00;;;4.80;;
77026;SDS011;65956;52.986;17.490;2023-07-16T05:36:03;5.80;;;3.80;;
77026;SDS011;65956;52.986;17.490;2023-07-16T05:38:29;6.50;;;4.10;;
77026;SDS011;65956;52.986;17.490;2023-07-16T05:41:02;5.80;;;4.00;;
77026;SDS011;65956;52.986;17.490;2023-07-16T05:43:29;6.20;;;3.70;;
77026;SDS011;65956;52.986;17.490;2023-07-16T05:45:54;5.00;;;3.70;;
77026;SDS011;65956;52.986;17.490;2023-07-16T05:48:20;5.60;;;4.20;;
77026;SDS011;65956;52.986;17.490;2023-07-16T05:50:46;6.70;;;3.60;;
77026;SDS011;65956;52.986;17.490;2023-07-16T05:53:12;7.00;;;3.30;;
77026;SDS011;65956;52.986;17.490;2023-07-16T05:55:41;5.20;;;3.20;;
77026;SDS011;65956;52.986;17.490;2023-07-16T05:58:08;5.00;;;3.50;;
77026;SDS011;65956;52.986;17.490;2023-07-16T06:00:34;6.70;;;3.50;;
77026;SDS011;65956;52.986;17.490;2023-07-16T06:03:04;6.20;;;3.60;;
77026;SDS011;65956;52.986;17.490;2023-07-16T06:05:30;5.20;;;3.20;;
77026;SDS011;65956;52.986;17.490;2023-07-16T06:08:00;6.20;;;3.30;;
77026;SDS011;65956;52.986;17.490;2023-07-16T06:10:27;5.70;;;3.10;;
77026;SDS011;65956;52.986;17.490;2023-07-16T06:12:53;6.60;;;3.40;;
77026;SDS011;65956;52.986;17.490;2023-07-16T06:15:19;4.60;;;3.40;;
77026;SDS011;65956;52.986;17.490;2023-07-16T06:17:45;4.40;;;3.20;;
77026;SDS011;65956;52.986;17.490;2023-07-16T06:20:11;5.80;;;3.40;;
77026;SDS011;65956;52.986;17.490;2023-07-16T06:22:37;4.60;;;2.80;;
77026;SDS011;65956;52.986;17.490;2023-07-16T06:25:03;5.10;;;3.50;;
77026;SDS011;65956;52.986;17.490;2023-07-16T06:27:30;5.50;;;2.80;;
77026;SDS011;65956;52.986;17.490;2023-07-16T06:29:56;5.70;;;3.50;;
77026;SDS011;65956;52.986;17.490;2023-07-16T06:32:22;6.30;;;3.20;;
77026;SDS011;65956;52.986;17.490;2023-07-16T06:34:48;4.90;;;3.10;;
77026;SDS011;65956;52.986;17.490;2023-07-16T06:37:14;4.90;;;3.30;;
77026;SDS011;65956;52.986;17.490;2023-07-16T06:39:40;5.40;;;3.10;;
77026;SDS011;65956;52.986;17.490;2023-07-16T06:42:06;5.60;;;3.10;;
77026;SDS011;65956;52.986;17.490;2023-07-16T06:44:32;4.70;;;3.20;;
77026;SDS011;65956;52.986;17.490;2023-07-16T06:46:58;4.60;;;3.00;;
77026;SDS011;65956;52.986;17.490;2023-07-16T06:49:24;5.20;;;3.10;;
77026;SDS011;65956;52.986;17.490;2023-07-16T06:51:50;5.10;;;3.10;;
77026;SDS011;65956;52.986;17.490;2023-07-16T06:54:16;5.90;;;3.10;;
77026;SDS011;65956;52.986;17.490;2023-07-16T06:56:43;5.60;;;2.90;;
77026;SDS011;65956;52.986;17.490;2023-07-16T06:59:09;3.80;;;2.60;;
77026;SDS011;65956;52.986;17.490;2023-07-16T07:01:35;4.50;;;2.50;;
77026;SDS011;65956;52.986;17.490;2023-07-16T07:04:01;4.10;;;2.60;;
77026;SDS011;65956;52.986;17.490;2023-07-16T07:06:28;4.90;;;2.70;;
77026;SDS011;65956;52.986;17.490;2023-07-16T07:08:54;3.70;;;2.30;;
77026;SDS011;65956;52.986;17.490;2023-07-16T07:11:20;3.60;;;2.00;;
77026;SDS011;65956;52.986;17.490;2023-07-16T07:13:46;4.40;;;2.60;;
77026;SDS011;65956;52.986;17.490;2023-07-16T07:16:12;5.20;;;2.00;;
77026;SDS011;65956;52.986;17.490;2023-07-16T07:18:38;3.40;;;2.00;;
77026;SDS011;65956;52.986;17.490;2023-07-16T07:21:04;3.70;;;2.00;;
77026;SDS011;65956;52.986;17.490;2023-07-16T07:23:30;5.90;;;2.10;;
77026;SDS011;65956;52.986;17.490;2023-07-16T07:25:55;3.90;;;1.80;;
77026;SDS011;65956;52.986;17.490;2023-07-16T07:28:21;3.30;;;1.70;;
77026;SDS011;65956;52.986;17.490;2023-07-16T07:30:47;4.10;;;1.60;;
77026;SDS011;65956;52.986;17.490;2023-07-16T07:33:13;5.10;;;1.60;;
77026;SDS011;65956;52.986;17.490;2023-07-16T07:35:39;4.40;;;1.90;;
77026;SDS011;65956;52.986;17.490;2023-07-16T07:38:05;4.70;;;1.70;;
77026;SDS011;65956;52.986;17.490;2023-07-16T07:40:31;4.60;;;1.90;;
77026;SDS011;65956;52.986;17.490;2023-07-16T07:42:58;2.80;;;1.60;;
77026;SDS011;65956;52.986;17.490;2023-07-16T07:45:24;4.10;;;1.80;;
77026;SDS011;65956;52.986;17.490;2023-07-16T07:47:50;2.90;;;1.60;;
77026;SDS011;65956;52.986;17.490;2023-07-16T07:50:16;5.10;;;2.10;;
77026;SDS011;65956;52.986;17.490;2023-07-16T07:52:42;4.00;;;1.90;;
77026;SDS011;65956;52.986;17.490;2023-07-16T07:55:08;3.90;;;1.80;;
77026;SDS011;65956;52.986;17.490;2023-07-16T07:57:34;3.50;;;1.70;;
77026;SDS011;65956;52.986;17.490;2023-07-16T08:00:00;3.40;;;1.90;;
77026;SDS011;65956;52.986;17.490;2023-07-16T08:02:26;4.90;;;2.50;;
77026;SDS011;65956;52.986;17.490;2023-07-16T08:04:53;3.50;;;1.80;;
77026;SDS011;65956;52.986;17.490;2023-07-16T08:07:21;4.10;;;2.00;;
77026;SDS011;65956;52.986;17.490;2023-07-16T08:09:47;3.70;;;1.80;;
77026;SDS011;65956;52.986;17.490;2023-07-16T08:12:14;4.60;;;1.80;;
77026;SDS011;65956;52.986;17.490;2023-07-16T08:14:40;3.80;;;2.10;;
77026;SDS011;65956;52.986;17.490;2023-07-16T08:17:07;3.50;;;1.90;;
77026;SDS011;65956;52.986;17.490;2023-07-16T08:19:33;3.30;;;2.00;;
77026;SDS011;65956;52.986;17.490;2023-07-16T08:21:59;3.40;;;1.80;;
77026;SDS011;65956;52.986;17.490;2023-07-16T08:24:25;4.10;;;1.90;;
77026;SDS011;65956;52.986;17.490;2023-07-16T08:26:51;4.10;;;2.10;;
77026;SDS011;65956;52.986;17.490;2023-07-16T08:29:17;3.40;;;1.90;;
77026;SDS011;65956;52.986;17.490;2023-07-16T08:31:43;3.60;;;1.80;;
77026;SDS011;65956;52.986;17.490;2023-07-16T08:34:09;3.30;;;1.90;;
77026;SDS011;65956;52.986;17.490;2023-07-16T08:36:36;3.40;;;1.90;;
77026;SDS011;65956;52.986;17.490;2023-07-16T08:39:03;3.50;;;2.00;;
77026;SDS011;65956;52.986;17.490;2023-07-16T08:41:29;4.10;;;2.40;;
77026;SDS011;65956;52.986;17.490;2023-07-16T08:43:56;3.40;;;1.80;;
77026;SDS011;65956;52.986;17.490;2023-07-16T08:46:22;3.10;;;1.80;;
77026;SDS011;65956;52.986;17.490;2023-07-16T08:48:48;3.70;;;2.30;;
77026;SDS011;65956;52.986;17.490;2023-07-16T08:51:15;4.00;;;2.00;;
77026;SDS011;65956;52.986;17.490;2023-07-16T08:53:44;3.80;;;2.10;;
77026;SDS011;65956;52.986;17.490;2023-07-16T08:56:10;3.90;;;2.00;;
77026;SDS011;65956;52.986;17.490;2023-07-16T08:58:36;4.20;;;2.00;;
77026;SDS011;65956;52.986;17.490;2023-07-16T09:01:04;5.10;;;2.20;;
77026;SDS011;65956;52.986;17.490;2023-07-16T09:03:31;3.80;;;2.00;;
77026;SDS011;65956;52.986;17.490;2023-07-16T09:05:57;4.50;;;1.90;;
77026;SDS011;65956;52.986;17.490;2023-07-16T09:08:23;4.50;;;2.10;;
77026;SDS011;65956;52.986;17.490;2023-07-16T09:10:54;4.20;;;1.80;;
77026;SDS011;65956;52.986;17.490;2023-07-16T09:13:22;4.30;;;1.90;;
77026;SDS011;65956;52.986;17.490;2023-07-16T09:15:53;3.40;;;2.10;;
77026;SDS011;65956;52.986;17.490;2023-07-16T09:18:20;5.40;;;2.10;;
77026;SDS011;65956;52.986;17.490;2023-07-16T09:20:57;3.40;;;2.00;;
77026;SDS011;65956;52.986;17.490;2023-07-16T09:23:27;4.10;;;2.10;;
77026;SDS011;65956;52.986;17.490;2023-07-16T09:25:55;5.60;;;2.50;;
77026;SDS011;65956;52.986;17.490;2023-07-16T09:28:21;4.00;;;2.10;;
77026;SDS011;65956;52.986;17.490;2023-07-16T09:30:48;3.60;;;2.10;;
77026;SDS011;65956;52.986;17.490;2023-07-16T09:33:16;4.20;;;2.10;;
77026;SDS011;65956;52.986;17.490;2023-07-16T09:35:43;4.20;;;2.60;;
77026;SDS011;65956;52.986;17.490;2023-07-16T09:38:10;4.40;;;2.50;;
77026;SDS011;65956;52.986;17.490;2023-07-16T09:40:37;4.60;;;2.40;;
77026;SDS011;65956;52.986;17.490;2023-07-16T09:43:04;4.70;;;2.50;;
77026;SDS011;65956;52.986;17.490;2023-07-16T09:45:32;5.40;;;2.40;;
77026;SDS011;65956;52.986;17.490;2023-07-16T09:47:58;4.50;;;2.40;;
77026;SDS011;65956;52.986;17.490;2023-07-16T09:50:24;5.00;;;2.50;;
77026;SDS011;65956;52.986;17.490;2023-07-16T09:52:54;3.60;;;2.00;;
77026;SDS011;65956;52.986;17.490;2023-07-16T09:55:23;3.40;;;2.10;;
77026;SDS011;65956;52.986;17.490;2023-07-16T09:57:52;3.20;;;1.90;;
77026;SDS011;65956;52.986;17.490;2023-07-16T10:02:47;3.40;;;2.00;;
77026;SDS011;65956;52.986;17.490;2023-07-16T10:07:40;3.70;;;2.20;;
77026;SDS011;65956;52.986;17.490;2023-07-16T10:10:07;4.50;;;2.60;;
77026;SDS011;65956;52.986;17.490;2023-07-16T10:12:35;4.30;;;2.40;;
77026;SDS011;65956;52.986;17.490;2023-07-16T10:15:03;4.80;;;2.30;;
77026;SDS011;65956;52.986;17.490;2023-07-16T10:17:31;3.90;;;2.60;;
77026;SDS011;65956;52.986;17.490;2023-07-16T10:22:45;4.60;;;2.40;;
77026;SDS011;65956;52.986;17.490;2023-07-16T10:27:44;4.80;;;2.50;;
77026;SDS011;65956;52.986;17.490;2023-07-16T10:30:11;5.00;;;2.70;;
77026;SDS011;65956;52.986;17.490;2023-07-16T10:32:38;4.60;;;2.70;;
77026;SDS011;65956;52.986;17.490;2023-07-16T10:35:05;3.80;;;2.50;;
77026;SDS011;65956;52.986;17.490;2023-07-16T10:37:32;4.70;;;2.70;;
77026;SDS011;65956;52.986;17.490;2023-07-16T10:39:59;4.40;;;2.70;;
77026;SDS011;65956;52.986;17.490;2023-07-16T10:42:27;4.00;;;2.20;;
77026;SDS011;65956;52.986;17.490;2023-07-16T10:44:54;4.40;;;2.30;;
77026;SDS011;65956;52.986;17.490;2023-07-16T10:47:23;3.50;;;2.20;;
77026;SDS011;65956;52.986;17.490;2023-07-16T10:49:51;4.70;;;2.40;;
77026;SDS011;65956;52.986;17.490;2023-07-16T10:52:21;3.80;;;2.40;;
77026;SDS011;65956;52.986;17.490;2023-07-16T10:54:48;4.10;;;2.30;;
77026;SDS011;65956;52.986;17.490;2023-07-16T10:57:26;3.60;;;2.00;;
77026;SDS011;65956;52.986;17.490;2023-07-16T10:59:54;3.70;;;2.10;;
77026;SDS011;65956;52.986;17.490;2023-07-16T11:02:23;4.40;;;2.00;;
77026;SDS011;65956;52.986;17.490;2023-07-16T11:04:50;4.10;;;1.90;;
77026;SDS011;65956;52.986;17.490;2023-07-16T11:07:21;3.30;;;2.00;;
77026;SDS011;65956;52.986;17.490;2023-07-16T11:09:48;3.60;;;2.00;;
77026;SDS011;65956;52.986;17.490;2023-07-16T11:12:23;3.90;;;2.20;;
77026;SDS011;65956;52.986;17.490;2023-07-16T11:14:50;3.50;;;1.90;;
77026;SDS011;65956;52.986;17.490;2023-07-16T11:17:20;4.30;;;2.10;;
77026;SDS011;65956;52.986;17.490;2023-07-16T11:19:50;3.30;;;1.80;;
77026;SDS011;65956;52.986;17.490;2023-07-16T11:22:18;3.20;;;1.80;;
77026;SDS011;65956;52.986;17.490;2023-07-16T11:24:45;3.30;;;2.10;;
77026;SDS011;65956;52.986;17.490;2023-07-16T11:29:52;3.80;;;1.80;;
77026;SDS011;65956;52.986;17.490;2023-07-16T11:32:29;3.20;;;1.60;;
77026;SDS011;65956;52.986;17.490;2023-07-16T11:34:57;3.50;;;1.90;;
77026;SDS011;65956;52.986;17.490;2023-07-16T11:37:24;4.40;;;1.80;;
77026;SDS011;65956;52.986;17.490;2023-07-16T11:39:55;3.10;;;1.70;;
77026;SDS011;65956;52.986;17.490;2023-07-16T11:42:29;3.70;;;1.80;;
77026;SDS011;65956;52.986;17.490;2023-07-16T11:44:55;4.10;;;1.90;;
77026;SDS011;65956;52.986;17.490;2023-07-16T11:47:22;3.30;;;2.00;;
77026;SDS011;65956;52.986;17.490;2023-07-16T11:49:48;3.00;;;1.60;;
77026;SDS011;65956;52.986;17.490;2023-07-16T11:52:18;4.10;;;2.00;;
77026;SDS011;65956;52.986;17.490;2023-07-16T11:54:46;4.00;;;2.00;;
77026;SDS011;65956;52.986;17.490;2023-07-16T11:57:11;3.60;;;2.10;;
77026;SDS011;65956;52.986;17.490;2023-07-16T11:59:37;3.10;;;2.00;;
77026;SDS011;65956;52.986;17.490;2023-07-16T12:02:03;3.70;;;2.10;;
77026;SDS011;65956;52.986;17.490;2023-07-16T12:04:30;3.30;;;1.90;;
77026;SDS011;65956;52.986;17.490;2023-07-16T12:06:55;3.10;;;2.10;;
77026;SDS011;65956;52.986;17.490;2023-07-16T12:09:21;3.00;;;1.90;;
77026;SDS011;65956;52.986;17.490;2023-07-16T12:11:47;3.70;;;2.40;;
77026;SDS011;65956;52.986;17.490;2023-07-16T12:14:13;3.70;;;2.20;;
77026;SDS011;65956;52.986;17.490;2023-07-16T12:16:39;3.80;;;2.00;;
77026;SDS011;65956;52.986;17.490;2023-07-16T12:19:06;3.20;;;2.00;;
77026;SDS011;65956;52.986;17.490;2023-07-16T12:21:34;3.40;;;2.00;;
77026;SDS011;65956;52.986;17.490;2023-07-16T12:24:00;3.60;;;1.90;;
77026;SDS011;65956;52.986;17.490;2023-07-16T12:26:27;4.20;;;1.90;;
77026;SDS011;65956;52.986;17.490;2023-07-16T12:28:53;3.70;;;1.80;;
77026;SDS011;65956;52.986;17.490;2023-07-16T12:31:20;3.60;;;1.90;;
77026;SDS011;65956;52.986;17.490;2023-07-16T12:33:47;3.20;;;1.80;;
77026;SDS011;65956;52.986;17.490;2023-07-16T12:36:14;3.30;;;1.80;;
77026;SDS011;65956;52.986;17.490;2023-07-16T12:38:41;3.20;;;2.10;;
77026;SDS011;65956;52.986;17.490;2023-07-16T12:41:07;3.30;;;2.10;;
77026;SDS011;65956;52.986;17.490;2023-07-16T12:43:33;3.10;;;1.80;;
77026;SDS011;65956;52.986;17.490;2023-07-16T12:46:03;3.40;;;2.20;;
77026;SDS011;65956;52.986;17.490;2023-07-16T12:48:30;3.40;;;2.10;;
77026;SDS011;65956;52.986;17.490;2023-07-16T12:50:56;4.40;;;2.70;;
77026;SDS011;65956;52.986;17.490;2023-07-16T12:53:23;3.50;;;2.10;;
77026;SDS011;65956;52.986;17.490;2023-07-16T12:55:52;3.30;;;2.00;;
77026;SDS011;65956;52.986;17.490;2023-07-16T12:58:18;4.10;;;2.40;;
77026;SDS011;65956;52.986;17.490;2023-07-16T13:00:44;4.30;;;2.60;;
77026;SDS011;65956;52.986;17.490;2023-07-16T13:03:10;3.80;;;2.10;;
77026;SDS011;65956;52.986;17.490;2023-07-16T13:05:37;3.30;;;1.80;;
77026;SDS011;65956;52.986;17.490;2023-07-16T13:08:04;3.50;;;2.30;;
77026;SDS011;65956;52.986;17.490;2023-07-16T13:10:30;3.70;;;2.10;;
77026;SDS011;65956;52.986;17.490;2023-07-16T13:12:56;3.70;;;2.00;;
77026;SDS011;65956;52.986;17.490;2023-07-16T13:15:22;3.40;;;1.60;;
77026;SDS011;65956;52.986;17.490;2023-07-16T13:17:48;3.60;;;1.70;;
77026;SDS011;65956;52.986;17.490;2023-07-16T13:20:14;3.00;;;1.90;;
77026;SDS011;65956;52.986;17.490;2023-07-16T13:22:40;4.40;;;2.10;;
77026;SDS011;65956;52.986;17.490;2023-07-16T13:25:06;3.80;;;2.00;;
77026;SDS011;65956;52.986;17.490;2023-07-16T13:27:32;4.20;;;1.90;;
77026;SDS011;65956;52.986;17.490;2023-07-16T13:29:58;3.40;;;1.90;;
77026;SDS011;65956;52.986;17.490;2023-07-16T13:32:24;3.90;;;2.00;;
77026;SDS011;65956;52.986;17.490;2023-07-16T13:34:50;3.50;;;2.10;;
77026;SDS011;65956;52.986;17.490;2023-07-16T13:37:16;3.80;;;2.00;;
77026;SDS011;65956;52.986;17.490;2023-07-16T13:39:42;4.00;;;2.10;;
77026;SDS011;65956;52.986;17.490;2023-07-16T13:42:08;4.30;;;3.00;;
77026;SDS011;65956;52.986;17.490;2023-07-16T13:44:36;4.10;;;2.00;;
77026;SDS011;65956;52.986;17.490;2023-07-16T13:47:03;3.20;;;1.90;;
77026;SDS011;65956;52.986;17.490;2023-07-16T13:49:29;3.30;;;2.00;;
77026;SDS011;65956;52.986;17.490;2023-07-16T13:51:55;3.60;;;1.80;;
77026;SDS011;65956;52.986;17.490;2023-07-16T13:54:21;4.20;;;2.30;;
77026;SDS011;65956;52.986;17.490;2023-07-16T13:56:48;3.80;;;2.40;;
77026;SDS011;65956;52.986;17.490;2023-07-16T13:59:14;4.10;;;2.20;;
77026;SDS011;65956;52.986;17.490;2023-07-16T14:01:40;3.10;;;1.90;;
77026;SDS011;65956;52.986;17.490;2023-07-16T14:04:07;4.10;;;2.30;;
77026;SDS011;65956;52.986;17.490;2023-07-16T14:06:34;3.50;;;2.30;;
77026;SDS011;65956;52.986;17.490;2023-07-16T14:09:00;3.90;;;2.20;;
77026;SDS011;65956;52.986;17.490;2023-07-16T14:11:26;3.20;;;1.90;;
77026;SDS011;65956;52.986;17.490;2023-07-16T14:13:52;3.20;;;1.60;;
77026;SDS011;65956;52.986;17.490;2023-07-16T14:16:21;4.80;;;2.50;;
77026;SDS011;65956;52.986;17.490;2023-07-16T14:18:51;3.80;;;2.30;;
77026;SDS011;65956;52.986;17.490;2023-07-16T14:21:18;2.90;;;1.80;;
77026;SDS011;65956;52.986;17.490;2023-07-16T14:23:44;3.40;;;2.00;;
77026;SDS011;65956;52.986;17.490;2023-07-16T14:26:10;3.10;;;1.80;;
77026;SDS011;65956;52.986;17.490;2023-07-16T14:28:36;3.50;;;2.30;;
77026;SDS011;65956;52.986;17.490;2023-07-16T14:31:02;2.80;;;1.60;;
77026;SDS011;65956;52.986;17.490;2023-07-16T14:33:28;3.10;;;1.80;;
77026;SDS011;65956;52.986;17.490;2023-07-16T14:35:54;3.20;;;1.70;;
77026;SDS011;65956;52.986;17.490;2023-07-16T14:38:20;3.70;;;2.00;;
77026;SDS011;65956;52.986;17.490;2023-07-16T14:40:46;3.60;;;1.80;;
77026;SDS011;65956;52.986;17.490;2023-07-16T14:43:14;2.90;;;1.50;;
77026;SDS011;65956;52.986;17.490;2023-07-16T14:45:39;3.90;;;2.00;;
77026;SDS011;65956;52.986;17.490;2023-07-16T14:48:05;5.00;;;2.50;;
77026;SDS011;65956;52.986;17.490;2023-07-16T14:50:31;4.20;;;2.10;;
77026;SDS011;65956;52.986;17.490;2023-07-16T14:52:57;5.00;;;1.90;;